createdAt,value
2024-02-19T00:01:32.353Z,-4.03
2024-02-19T00:04:00.012Z,-3.86
2024-02-19T00:06:27.788Z,-3.85
2024-02-19T00:08:55.598Z,-3.64
2024-02-19T00:11:23.299Z,-3.70
2024-02-19T00:13:51.238Z,-3.89
2024-02-19T00:16:18.821Z,-3.79
2024-02-19T00:18:47.026Z,-3.92
2024-02-19T00:21:17.833Z,-4.02
2024-02-19T00:23:45.432Z,-4.19
2024-02-19T00:26:15.605Z,-4.63
2024-02-19T00:28:43.697Z,-4.63
2024-02-19T00:31:14.776Z,-4.21
2024-02-19T00:33:43.042Z,-4.23
2024-02-19T00:36:10.842Z,-4.15
2024-02-19T00:38:38.323Z,-4.25
2024-02-19T00:41:05.893Z,-4.10
2024-02-19T00:43:33.342Z,-4.12
2024-02-19T00:46:01.147Z,-4.04
2024-02-19T00:48:29.020Z,-3.96
2024-02-19T00:50:56.501Z,-3.83
2024-02-19T00:53:24.050Z,-3.98
2024-02-19T00:55:53.907Z,-4.12
2024-02-19T00:58:21.810Z,-4.07
2024-02-19T01:00:49.417Z,-3.68
2024-02-19T01:03:18.381Z,-3.98
2024-02-19T01:05:46.005Z,-3.98
2024-02-19T01:08:13.556Z,-3.86
2024-02-19T01:10:41.176Z,-3.85
2024-02-19T01:13:09.025Z,-3.87
2024-02-19T01:15:37.078Z,-3.94
2024-02-19T01:18:05.813Z,-3.72
2024-02-19T01:20:33.443Z,-3.94
2024-02-19T01:23:00.953Z,-3.78
2024-02-19T01:25:28.539Z,-3.78
2024-02-19T01:27:56.302Z,-3.77
2024-02-19T01:30:24.164Z,-3.53
2024-02-19T01:32:51.860Z,-3.50
2024-02-19T01:35:19.554Z,-3.63
2024-02-19T01:37:47.415Z,-3.98
2024-02-19T01:40:15.319Z,-3.67
2024-02-19T01:42:43.027Z,-3.93
2024-02-19T01:45:38.488Z,-3.82
2024-02-19T01:48:07.326Z,-4.12
2024-02-19T01:50:36.610Z,-4.15
2024-02-19T01:53:08.868Z,-4.04
2024-02-19T01:55:38.900Z,-3.76
2024-02-19T01:58:08.416Z,-3.83
2024-02-19T02:00:44.732Z,-3.96
2024-02-19T02:03:16.025Z,-3.93
2024-02-19T02:05:43.809Z,-4.15
2024-02-19T02:08:11.423Z,-4.12
2024-02-19T02:10:38.991Z,-4.00
2024-02-19T02:13:06.823Z,-4.17
2024-02-19T02:15:34.662Z,-4.15
2024-02-19T02:18:02.531Z,-3.95
2024-02-19T02:20:32.609Z,-3.96
2024-02-19T02:23:00.219Z,-4.00
2024-02-19T02:25:27.839Z,-4.03
2024-02-19T02:27:55.465Z,-3.85
2024-02-19T02:30:23.202Z,-4.06
2024-02-19T02:32:54.671Z,-4.12
2024-02-19T02:35:24.980Z,-3.91
2024-02-19T02:37:52.575Z,-3.68
2024-02-19T02:40:20.234Z,-3.68
2024-02-19T02:42:47.933Z,-3.86
2024-02-19T02:45:15.340Z,-3.92
2024-02-19T02:47:42.851Z,-3.93
2024-02-19T02:50:10.687Z,-3.88
2024-02-19T02:52:38.438Z,-3.94
2024-02-19T02:55:06.432Z,-3.85
2024-02-19T02:57:33.976Z,-3.61
2024-02-19T03:00:01.656Z,-3.72
2024-02-19T03:02:34.268Z,-3.54
2024-02-19T03:05:02.218Z,-3.64
2024-02-19T03:07:30.868Z,-3.74
2024-02-19T03:09:58.668Z,-4.02
2024-02-19T03:12:26.114Z,-3.90
2024-02-19T03:14:54.051Z,-3.96
2024-02-19T03:17:22.081Z,-4.01
2024-02-19T03:19:49.893Z,-3.93
2024-02-19T03:22:17.678Z,-3.97
2024-02-19T03:24:45.238Z,-4.18
2024-02-19T03:27:14.090Z,-4.19
2024-02-19T03:29:41.973Z,-4.08
2024-02-19T03:32:09.601Z,-3.87
2024-02-19T03:34:37.238Z,-3.84
2024-02-19T03:37:04.764Z,-3.65
2024-02-19T03:39:32.471Z,-3.86
2024-02-19T03:42:01.737Z,-4.07
2024-02-19T03:44:29.468Z,-3.91
2024-02-19T03:47:00.145Z,-3.77
2024-02-19T03:49:29.197Z,-3.62
2024-02-19T03:51:57.013Z,-3.90
2024-02-19T03:54:24.535Z,-4.06
2024-02-19T03:56:52.614Z,-4.16
2024-02-19T03:59:20.162Z,-4.00
2024-02-19T04:01:47.821Z,-4.06
2024-02-19T04:04:17.923Z,-4.05
2024-02-19T04:06:45.881Z,-4.13
2024-02-19T04:09:13.533Z,-3.98
2024-02-19T04:11:41.094Z,-4.02
2024-02-19T04:14:08.868Z,-3.86
2024-02-19T04:16:36.280Z,-3.78
2024-02-19T04:19:04.128Z,-3.75
2024-02-19T04:21:31.789Z,-3.84
2024-02-19T04:23:59.618Z,-3.94
2024-02-19T04:26:27.130Z,-4.27
2024-02-19T04:28:55.215Z,-3.89
2024-02-19T04:31:22.664Z,-3.73
2024-02-19T04:33:50.602Z,-3.75
2024-02-19T04:36:18.244Z,-3.72
2024-02-19T04:38:45.913Z,-4.04
2024-02-19T04:41:13.296Z,-3.84
2024-02-19T04:43:40.947Z,-4.38
2024-02-19T04:46:08.700Z,-4.08
2024-02-19T04:48:37.483Z,-4.05
2024-02-19T04:51:06.618Z,-3.97
2024-02-19T04:53:34.446Z,-4.17
2024-02-19T04:56:02.622Z,-4.04
2024-02-19T04:58:30.402Z,-3.97
2024-02-19T05:00:57.933Z,-4.06
2024-02-19T05:03:25.405Z,-4.03
2024-02-19T05:05:52.881Z,-4.05
2024-02-19T05:08:20.482Z,-3.97
2024-02-19T05:10:48.002Z,-3.87
2024-02-19T05:13:15.596Z,-3.72
2024-02-19T05:15:43.560Z,-3.76
2024-02-19T05:18:11.340Z,-3.76
2024-02-19T05:20:39.023Z,-3.74
2024-02-19T05:23:06.494Z,-3.88
2024-02-19T05:25:33.892Z,-3.79
2024-02-19T05:28:02.311Z,-3.55
2024-02-19T05:30:30.017Z,-3.57
2024-02-19T05:32:57.608Z,-3.73
2024-02-19T05:35:26.463Z,-3.97
2024-02-19T05:37:54.215Z,-3.76
2024-02-19T05:40:21.815Z,-3.92
2024-02-19T05:42:49.563Z,-3.72
2024-02-19T05:45:17.102Z,-3.71
2024-02-19T05:47:44.909Z,-3.76
2024-02-19T05:50:12.582Z,-3.64
2024-02-19T05:52:40.470Z,-3.59
2024-02-19T05:55:10.822Z,-3.64
2024-02-19T05:57:39.193Z,-3.58
2024-02-19T06:00:12.416Z,-3.77
2024-02-19T06:02:40.468Z,-3.81
2024-02-19T06:05:09.307Z,-3.81
2024-02-19T06:07:37.226Z,-3.72
2024-02-19T06:10:09.075Z,-3.78
2024-02-19T06:12:36.730Z,-3.70
2024-02-19T06:15:04.976Z,-3.81
2024-02-19T06:17:32.941Z,-3.77
2024-02-19T06:20:00.543Z,-3.96
2024-02-19T06:22:28.251Z,-3.70
2024-02-19T06:24:55.752Z,-3.73
2024-02-19T06:27:23.397Z,-3.50
2024-02-19T06:29:50.782Z,-3.49
2024-02-19T06:32:18.454Z,-3.38
2024-02-19T06:34:46.333Z,-3.40
2024-02-19T06:37:14.130Z,-3.30
2024-02-19T06:39:42.666Z,-3.42
2024-02-19T06:42:10.209Z,-3.46
2024-02-19T06:44:37.749Z,-3.36
2024-02-19T06:47:05.493Z,-3.29
2024-02-19T06:49:33.249Z,-3.57
2024-02-19T06:52:01.051Z,-3.17
2024-02-19T06:54:31.354Z,-3.22
2024-02-19T06:57:00.069Z,-2.93
2024-02-19T06:59:27.861Z,-2.95
2024-02-19T07:01:55.342Z,-2.94
2024-02-19T07:04:23.278Z,-2.80
2024-02-19T07:06:51.126Z,-2.72
2024-02-19T07:09:19.799Z,-2.86
2024-02-19T07:11:47.251Z,-2.83
2024-02-19T07:14:16.337Z,-2.73
2024-02-19T07:16:43.677Z,-2.56
2024-02-19T07:19:11.408Z,-2.93
2024-02-19T07:21:39.849Z,-2.92
2024-02-19T07:24:07.405Z,-2.80
2024-02-19T07:26:35.574Z,-2.78
2024-02-19T07:29:03.093Z,-2.67
2024-02-19T07:31:30.695Z,-2.76
2024-02-19T07:33:58.447Z,-2.83
2024-02-19T07:36:26.154Z,-2.70
2024-02-19T07:38:53.881Z,-2.87
2024-02-19T07:41:22.235Z,-2.83
2024-02-19T07:43:50.811Z,-2.79
2024-02-19T07:46:20.520Z,-2.97
2024-02-19T07:48:48.456Z,-3.15
2024-02-19T07:51:16.340Z,-3.33
2024-02-19T07:53:44.079Z,-3.10
2024-02-19T07:56:12.310Z,-3.27
2024-02-19T07:58:40.294Z,-3.06
2024-02-19T08:01:08.097Z,-3.15
2024-02-19T08:03:36.137Z,-3.01
2024-02-19T08:06:03.855Z,-3.04
2024-02-19T08:08:31.844Z,-2.95
2024-02-19T08:10:59.880Z,-2.84
2024-02-19T08:13:27.570Z,-2.91
2024-02-19T08:15:55.381Z,-3.16
2024-02-19T08:18:23.174Z,-2.88
2024-02-19T08:20:52.984Z,-2.77
2024-02-19T08:23:20.766Z,-2.81
2024-02-19T08:25:49.088Z,-3.14
2024-02-19T08:28:17.088Z,-2.83
2024-02-19T08:30:45.465Z,-2.95
2024-02-19T08:33:13.217Z,-2.93
2024-02-19T08:35:41.016Z,-2.98
2024-02-19T08:38:09.286Z,-2.97
2024-02-19T08:40:36.856Z,-2.94
2024-02-19T08:43:04.493Z,-2.87
2024-02-19T08:45:36.832Z,-2.72
2024-02-19T08:48:06.152Z,-2.99
2024-02-19T08:50:33.985Z,-2.59
2024-02-19T08:53:02.089Z,-2.65
2024-02-19T08:55:29.787Z,-3.00
2024-02-19T08:57:57.686Z,-2.88
2024-02-19T09:00:25.383Z,-2.72
2024-02-19T09:02:54.195Z,-2.81
2024-02-19T09:05:23.950Z,-2.80
2024-02-19T09:07:51.547Z,-2.97
2024-02-19T09:10:19.521Z,-2.93
2024-02-19T09:12:47.260Z,-3.19
2024-02-19T09:15:14.745Z,-3.03
2024-02-19T09:17:42.378Z,-3.12
2024-02-19T09:20:10.782Z,-3.06
2024-02-19T09:22:38.881Z,-3.16
2024-02-19T09:25:06.460Z,-3.45
2024-02-19T09:27:34.693Z,-3.36
2024-02-19T09:30:02.272Z,-3.21
2024-02-19T09:32:31.650Z,-3.21
2024-02-19T09:34:59.426Z,-2.87
2024-02-19T09:37:27.302Z,-2.53
2024-02-19T09:40:00.322Z,-2.66
2024-02-19T09:42:29.056Z,-2.72
2024-02-19T09:44:57.097Z,-2.69
2024-02-19T09:47:25.460Z,-3.11
2024-02-19T09:49:54.683Z,-3.52
2024-02-19T09:52:30.036Z,-3.07
2024-02-19T09:54:58.990Z,-3.18
2024-02-19T09:57:29.577Z,-3.14
2024-02-19T10:00:04.070Z,-3.25
2024-02-19T10:02:34.672Z,-3.08
2024-02-19T10:05:02.770Z,-3.15
2024-02-19T10:07:32.795Z,-2.99
2024-02-19T10:10:01.041Z,-3.10
2024-02-19T10:12:30.883Z,-3.03
2024-02-19T10:14:58.798Z,-3.14
2024-02-19T10:17:33.709Z,-3.10
2024-02-19T10:20:07.935Z,-2.91
2024-02-19T10:22:36.177Z,-3.05
2024-02-19T10:25:08.916Z,-3.19
2024-02-19T10:27:38.814Z,-3.14
2024-02-19T10:30:10.611Z,-3.02
2024-02-19T10:32:38.857Z,-3.06
2024-02-19T10:35:07.837Z,-3.13
2024-02-19T10:37:38.536Z,-3.39
2024-02-19T10:40:10.419Z,-2.94
2024-02-19T10:42:39.641Z,-3.25
2024-02-19T10:45:10.438Z,-3.39
2024-02-19T10:47:39.935Z,-3.01
2024-02-19T10:50:09.137Z,-3.15
2024-02-19T10:52:41.160Z,-3.12
2024-02-19T10:55:26.219Z,-2.81
2024-02-19T10:58:01.585Z,-3.05
2024-02-19T11:00:29.840Z,-3.30
2024-02-19T11:03:07.821Z,-2.98
2024-02-19T11:05:40.218Z,-2.93
2024-02-19T11:08:21.430Z,-2.85
2024-02-19T11:10:49.981Z,-2.97
2024-02-19T11:13:28.725Z,-2.86
2024-02-19T11:15:57.034Z,-2.97
2024-02-19T11:18:25.047Z,-2.92
2024-02-19T11:20:52.649Z,-2.73
2024-02-19T11:23:21.918Z,-2.92
2024-02-19T11:25:49.509Z,-2.92
2024-02-19T11:28:17.630Z,-3.21
2024-02-19T11:30:48.024Z,-2.84
2024-02-19T11:33:16.072Z,-2.81
2024-02-19T11:35:45.246Z,-2.78
2024-02-19T11:38:13.300Z,-2.88
2024-02-19T11:40:41.218Z,-3.05
2024-02-19T11:43:10.071Z,-3.14
2024-02-19T11:45:39.400Z,-3.14
2024-02-19T11:48:07.502Z,-3.25
2024-02-19T11:50:35.360Z,-3.34
2024-02-19T11:53:04.769Z,-3.15
2024-02-19T11:55:34.829Z,-3.08
2024-02-19T11:58:03.911Z,-3.23
2024-02-19T12:00:33.063Z,-3.16
2024-02-19T12:03:01.744Z,-2.92
2024-02-19T12:05:29.693Z,-2.97
2024-02-19T12:07:57.903Z,-3.11
2024-02-19T12:10:25.885Z,-3.14
2024-02-19T12:12:55.540Z,-3.13
2024-02-19T12:15:23.493Z,-3.15
2024-02-19T12:17:53.612Z,-3.19
2024-02-19T12:20:22.257Z,-3.31
2024-02-19T12:22:50.109Z,-3.45
2024-02-19T12:25:18.129Z,-3.23
2024-02-19T12:27:47.714Z,-3.31
2024-02-19T12:30:15.372Z,-3.44
2024-02-19T12:32:44.746Z,-3.61
2024-02-19T12:35:12.513Z,-3.40
2024-02-19T12:37:40.176Z,-3.45
2024-02-19T12:40:08.867Z,-3.66
2024-02-19T12:42:36.399Z,-3.25
2024-02-19T12:45:04.516Z,-3.14
2024-02-19T12:47:32.495Z,-3.25
2024-02-19T12:50:00.160Z,-3.39
2024-02-19T12:52:28.775Z,-3.46
2024-02-19T12:54:57.226Z,-3.39
2024-02-19T12:57:25.115Z,-3.41
2024-02-19T12:59:52.625Z,-3.58
2024-02-19T13:02:20.465Z,-3.78
2024-02-19T13:04:51.219Z,-3.49
2024-02-19T13:07:19.213Z,-3.48
2024-02-19T13:09:47.076Z,-3.36
2024-02-19T13:12:15.651Z,-3.33
2024-02-19T13:14:45.028Z,-3.52
2024-02-19T13:17:22.884Z,-3.35
2024-02-19T13:19:54.121Z,-3.44
2024-02-19T13:22:22.977Z,-3.37
2024-02-19T13:24:51.026Z,-3.46
2024-02-19T13:27:20.909Z,-3.28
2024-02-19T13:29:48.576Z,-3.46
2024-02-19T13:32:16.280Z,-3.70
2024-02-19T13:34:43.977Z,-3.38
2024-02-19T13:37:11.742Z,-3.36
2024-02-19T13:39:39.449Z,-3.51
2024-02-19T13:42:07.118Z,-3.57
2024-02-19T13:44:34.721Z,-3.57
2024-02-19T13:47:02.432Z,-3.71
2024-02-19T13:49:30.663Z,-3.51
2024-02-19T13:51:58.553Z,-3.47
2024-02-19T13:54:26.047Z,-3.32
2024-02-19T13:56:55.249Z,-3.34
2024-02-19T13:59:23.092Z,-3.53
2024-02-19T14:01:50.678Z,-3.27
2024-02-19T14:04:18.338Z,-3.35
2024-02-19T14:06:46.442Z,-3.56
2024-02-19T14:09:14.248Z,-3.59
2024-02-19T14:11:42.001Z,-3.68
2024-02-19T14:14:10.105Z,-3.62
2024-02-19T14:16:37.934Z,-3.70
2024-02-19T14:19:05.686Z,-3.66
2024-02-19T14:21:33.461Z,-3.88
2024-02-19T14:24:01.632Z,-3.86
2024-02-19T14:26:30.562Z,-3.71
2024-02-19T14:28:58.923Z,-3.61
2024-02-19T14:31:26.576Z,-3.42
2024-02-19T14:33:54.637Z,-3.53
2024-02-19T14:36:25.775Z,-3.56
2024-02-19T14:38:54.450Z,-3.36
2024-02-19T14:41:22.967Z,-3.72
2024-02-19T14:43:50.874Z,-3.63
2024-02-19T14:46:19.396Z,-3.62
2024-02-19T14:48:47.874Z,-3.45
2024-02-19T14:51:19.877Z,-3.53
2024-02-19T14:53:49.255Z,-3.60
2024-02-19T14:56:17.300Z,-3.68
2024-02-19T14:58:44.804Z,-3.52
2024-02-19T15:01:13.889Z,-3.78
2024-02-19T15:03:41.681Z,-4.01
2024-02-19T15:06:10.544Z,-3.81
2024-02-19T15:08:38.469Z,-4.48
2024-02-19T15:11:06.064Z,-4.13
2024-02-19T15:13:35.305Z,-4.32
2024-02-19T15:16:03.154Z,-4.05
2024-02-19T15:18:31.071Z,-4.32
2024-02-19T15:20:59.416Z,-4.00
2024-02-19T15:23:26.891Z,-3.92
2024-02-19T15:25:54.489Z,-3.95
2024-02-19T15:28:22.270Z,-3.96
2024-02-19T15:30:50.302Z,-3.88
2024-02-19T15:33:18.051Z,-4.14
2024-02-19T15:35:46.814Z,-4.10
2024-02-19T15:38:15.198Z,-4.05
2024-02-19T15:40:42.801Z,-4.05
2024-02-19T15:43:10.545Z,-4.14
2024-02-19T15:45:39.456Z,-4.26
2024-02-19T15:48:07.875Z,-3.92
2024-02-19T15:50:35.455Z,-4.26
2024-02-19T15:53:06.681Z,-3.94
2024-02-19T15:55:35.473Z,-3.85
2024-02-19T15:58:03.046Z,-3.67
2024-02-19T16:00:33.697Z,-3.97
2024-02-19T16:03:01.360Z,-3.87
2024-02-19T16:05:29.007Z,-4.20
2024-02-19T16:07:57.458Z,-3.88
2024-02-19T16:10:25.092Z,-4.04
2024-02-19T16:12:54.215Z,-4.15
2024-02-19T16:15:22.533Z,-3.97
2024-02-19T16:17:50.512Z,-3.94
2024-02-19T16:20:19.149Z,-4.00
2024-02-19T16:22:48.274Z,-4.19
2024-02-19T16:25:15.913Z,-4.08
2024-02-19T16:27:44.483Z,-4.18
2024-02-19T16:30:14.739Z,-4.44
2024-02-19T16:32:42.705Z,-4.33
2024-02-19T16:35:12.600Z,-4.03
2024-02-19T16:37:41.452Z,-3.81
2024-02-19T16:40:09.828Z,-3.96
2024-02-19T16:42:39.410Z,-4.05
2024-02-19T16:45:07.425Z,-4.12
2024-02-19T16:47:34.893Z,-4.05
2024-02-19T16:50:02.931Z,-4.07
2024-02-19T16:52:30.864Z,-3.80
2024-02-19T16:54:58.948Z,-3.98
2024-02-19T16:57:27.130Z,-4.39
2024-02-19T16:59:54.712Z,-3.76
2024-02-19T17:02:23.212Z,-4.13
2024-02-19T17:04:53.048Z,-4.31
2024-02-19T17:07:21.109Z,-4.24
2024-02-19T17:09:49.130Z,-4.22
2024-02-19T17:12:16.919Z,-4.34
2024-02-19T17:14:46.162Z,-4.41
2024-02-19T17:17:13.685Z,-4.39
2024-02-19T17:19:41.444Z,-4.59
2024-02-19T17:22:09.502Z,-4.43
2024-02-19T17:24:39.870Z,-4.21
2024-02-19T17:27:09.017Z,-4.21
2024-02-19T17:29:37.091Z,-4.13
2024-02-19T17:32:05.143Z,-3.98
2024-02-19T17:34:32.996Z,-4.12
2024-02-19T17:37:02.547Z,-4.08
2024-02-19T17:39:30.063Z,-4.43
2024-02-19T17:41:57.607Z,-4.35
2024-02-19T17:44:25.911Z,-4.46
2024-02-19T17:46:55.536Z,-4.62
2024-02-19T17:49:23.448Z,-4.50
2024-02-19T17:51:54.374Z,-4.45
2024-02-19T17:54:22.437Z,-4.14
2024-02-19T17:56:49.876Z,-4.33
2024-02-19T17:59:17.559Z,-4.16
2024-02-19T18:01:45.569Z,-4.23
2024-02-19T18:04:13.652Z,-4.31
2024-02-19T18:06:41.320Z,-4.33
2024-02-19T18:09:10.795Z,-4.47
2024-02-19T18:11:38.406Z,-4.36
2024-02-19T18:14:06.033Z,-4.83
2024-02-19T18:16:34.439Z,-4.68
2024-02-19T18:19:02.335Z,-4.59
2024-02-19T18:21:29.933Z,-4.37
2024-02-19T18:23:58.992Z,-4.47
2024-02-19T18:26:27.886Z,-4.39
2024-02-19T18:28:57.515Z,-4.38
2024-02-19T18:31:25.762Z,-4.33
2024-02-19T18:33:53.514Z,-4.46
2024-02-19T18:36:21.345Z,-4.38
2024-02-19T18:38:49.212Z,-4.48
2024-02-19T18:41:16.922Z,-4.58
2024-02-19T18:43:45.133Z,-4.70
2024-02-19T18:46:12.647Z,-4.85
2024-02-19T18:48:43.253Z,-4.86
2024-02-19T18:51:12.207Z,-4.58
2024-02-19T18:53:40.745Z,-4.63
2024-02-19T18:56:08.365Z,-4.62
2024-02-19T18:58:36.138Z,-4.67
2024-02-19T19:01:05.835Z,-4.88
2024-02-19T19:03:33.943Z,-4.88
2024-02-19T19:06:04.932Z,-5.01
2024-02-19T19:08:34.055Z,-5.28
2024-02-19T19:11:01.598Z,-4.86
2024-02-19T19:13:29.576Z,-4.67
2024-02-19T19:15:57.596Z,-4.77
2024-02-19T19:18:26.089Z,-4.68
2024-02-19T19:20:53.776Z,-4.78
2024-02-19T19:23:21.754Z,-4.87
2024-02-19T19:25:50.807Z,-4.90
2024-02-19T19:28:20.266Z,-5.19
2024-02-19T19:30:48.116Z,-4.94
2024-02-19T19:33:18.810Z,-4.94
2024-02-19T19:35:49.368Z,-5.47
2024-02-19T19:38:17.422Z,-5.05
2024-02-19T19:40:45.253Z,-5.05
2024-02-19T19:43:13.110Z,-5.16
2024-02-19T19:45:40.477Z,-4.98
2024-02-19T19:48:08.751Z,-5.26
2024-02-19T19:50:37.091Z,-4.63
2024-02-19T19:53:04.806Z,-4.49
2024-02-19T19:55:32.894Z,-4.58
2024-02-19T19:58:01.009Z,-4.69
2024-02-19T20:00:29.203Z,-5.31
2024-02-19T20:02:58.810Z,-4.48
2024-02-19T20:05:26.505Z,-4.94
2024-02-19T20:07:54.348Z,-5.35
2024-02-19T20:10:21.886Z,-5.32
2024-02-19T20:12:50.916Z,-5.32
2024-02-19T20:15:18.828Z,-5.27
2024-02-19T20:17:46.515Z,-5.32
2024-02-19T20:20:14.220Z,-5.32
2024-02-19T20:22:42.467Z,-4.91
2024-02-19T20:25:11.133Z,-4.99
2024-02-19T20:27:40.574Z,-5.17
2024-02-19T20:30:09.785Z,-5.23
2024-02-19T20:32:37.573Z,-5.24
2024-02-19T20:35:06.031Z,-5.60
2024-02-19T20:37:33.987Z,-5.66
2024-02-19T20:40:06.033Z,-5.69
2024-02-19T20:42:35.850Z,-5.48
2024-02-19T20:45:03.748Z,-5.42
2024-02-19T20:47:31.738Z,-5.33
2024-02-19T20:50:01.305Z,-5.33
2024-02-19T20:52:31.177Z,-5.39
2024-02-19T20:54:58.884Z,-5.55
2024-02-19T20:57:26.426Z,-5.35
2024-02-19T20:59:54.577Z,-5.62
2024-02-19T21:02:22.569Z,-5.45
2024-02-19T21:04:50.610Z,-5.38
2024-02-19T21:07:18.573Z,-5.42
2024-02-19T21:09:46.198Z,-5.54
2024-02-19T21:12:13.874Z,-5.70
2024-02-19T21:14:41.508Z,-5.60
2024-02-19T21:17:09.375Z,-5.73
2024-02-19T21:19:37.060Z,-6.09
2024-02-19T21:22:04.844Z,-5.69
2024-02-19T21:24:32.440Z,-5.70
2024-02-19T21:27:00.712Z,-5.66
2024-02-19T21:29:30.136Z,-5.57
2024-02-19T21:31:57.991Z,-5.75
2024-02-19T21:34:25.409Z,-5.70
2024-02-19T21:36:57.485Z,-5.52
2024-02-19T21:39:26.303Z,-5.66
2024-02-19T21:41:54.321Z,-5.39
2024-02-19T21:44:23.254Z,-5.63
2024-02-19T21:46:51.212Z,-5.69
2024-02-19T21:49:20.820Z,-5.81
2024-02-19T21:51:49.342Z,-5.87
2024-02-19T21:54:17.255Z,-5.91
2024-02-19T21:56:44.752Z,-5.82
2024-02-19T21:59:12.520Z,-5.93
2024-02-19T22:01:40.189Z,-6.13
2024-02-19T22:04:09.654Z,-6.23
2024-02-19T22:06:37.373Z,-5.94
2024-02-19T22:09:05.214Z,-5.93
2024-02-19T22:11:34.722Z,-5.77
2024-02-19T22:14:02.484Z,-6.06
2024-02-19T22:16:30.401Z,-5.85
2024-02-19T22:18:58.203Z,-5.94
2024-02-19T22:21:25.775Z,-6.12
2024-02-19T22:23:53.458Z,-6.15
2024-02-19T22:26:21.742Z,-6.12
2024-02-19T22:28:49.385Z,-6.73
2024-02-19T22:31:17.093Z,-6.21
2024-02-19T22:33:44.677Z,-6.61
2024-02-19T22:36:12.295Z,-6.26
2024-02-19T22:38:40.134Z,-6.44
2024-02-19T22:41:07.718Z,-5.98
2024-02-19T22:43:35.464Z,-6.33
2024-02-19T22:46:02.964Z,-6.01
2024-02-19T22:48:30.643Z,-5.91
2024-02-19T22:50:58.678Z,-5.95
2024-02-19T22:53:26.268Z,-5.85
2024-02-19T22:55:53.725Z,-5.71
2024-02-19T22:58:31.263Z,-5.83
2024-02-19T23:01:03.395Z,-6.31
2024-02-19T23:03:31.457Z,-5.99
2024-02-19T23:05:59.326Z,-5.96
2024-02-19T23:08:27.268Z,-6.10
2024-02-19T23:10:55.954Z,-6.18
2024-02-19T23:13:23.613Z,-6.31
2024-02-19T23:15:51.408Z,-5.91
2024-02-19T23:18:19.092Z,-6.05
2024-02-19T23:20:47.091Z,-6.05
2024-02-19T23:23:14.578Z,-6.29
2024-02-19T23:25:42.673Z,-6.21
2024-02-19T23:28:10.265Z,-5.93
2024-02-19T23:30:37.767Z,-5.83
2024-02-19T23:33:06.065Z,-5.89
2024-02-19T23:35:35.276Z,-5.97
2024-02-19T23:38:03.182Z,-5.93
2024-02-19T23:40:30.935Z,-6.21
2024-02-19T23:42:58.852Z,-6.14
2024-02-19T23:45:26.380Z,-6.33
2024-02-19T23:47:54.192Z,-6.24
2024-02-19T23:50:21.864Z,-6.21
2024-02-19T23:52:49.642Z,-6.20
2024-02-19T23:55:18.514Z,-6.41
2024-02-19T23:57:46.221Z,-6.39
